Time;durP1;ratioP1;P1;durP2;ratioP2;P2;SDS_P1;SDS_P2;PMS_P1;PMS_P2;Temp;Humidity;BMP_temperature;BMP_pressure;BME280_temperature;BME280_humidity;BME280_pressure;Samples;Min_cycle;Max_cycle;Signal;HPM_P1;HPM_P2
2022/01/28 00:02:55;;;;;;;;;;;2.60;99.90;;;;;;4972995;28;19953;-76
2022/01/28 00:05:20;;;;;;;;;;;2.60;99.90;;;;;;4978561;28;20331;-76
2022/01/28 00:07:47;;;;;;;;;;;2.60;99.90;;;;;;4979502;28;19929;-76
2022/01/28 00:10:14;;;;;;;;;;;2.60;99.90;;;;;;4980165;28;20403;-76
2022/01/28 00:13:31;;;;;;;;;;;2.60;99.90;;;;;;4981546;28;20454;-76
2022/01/28 00:39:47;;;;;;;;;;;2.90;99.90;;;;;;4983049;28;19926;-75
2022/01/28 00:42:14;;;;;;;;;;;2.90;99.90;;;;;;4987177;28;19952;-75
2022/01/28 00:44:40;;;;;;;;;;;2.90;99.90;;;;;;4986956;28;19951;-76
2022/01/28 00:47:07;;;;;;;;;;;2.90;99.90;;;;;;4984332;28;19930;-75
2022/01/28 00:49:34;;;;;;;;;;;2.90;99.90;;;;;;4981517;28;19975;-75
2022/01/28 00:52:01;;;;;;;;;;;2.90;99.90;;;;;;4981673;28;19983;-75
2022/01/28 00:54:28;;;;;;;;;;;2.90;99.90;;;;;;4981686;28;20419;-78
2022/01/28 00:56:55;;;;;;;;;;;2.90;99.90;;;;;;4985304;28;19925;-77
2022/01/28 00:59:21;;;;;;;;;;;2.90;99.90;;;;;;4977721;28;20032;-78
2022/01/28 01:01:48;;;;;;;;;;;2.90;99.90;;;;;;4983216;28;19934;-78
2022/01/28 01:04:15;;;;;;;;;;;2.90;99.90;;;;;;4979088;28;19934;-78
2022/01/28 01:06:41;;;;;;;;;;;2.80;99.90;;;;;;4981927;28;19982;-77
2022/01/28 01:09:08;;;;;;;;;;;2.80;99.90;;;;;;4979797;28;19988;-77
2022/01/28 01:11:35;;;;;;;;;;;2.80;99.90;;;;;;4980333;28;19932;-78
2022/01/28 01:14:02;;;;;;;;;;;2.80;99.90;;;;;;4981528;28;20021;-78
2022/01/28 01:16:34;;;;;;;;;;;2.90;99.90;;;;;;4992421;28;19948;-77
2022/01/28 01:21:39;;;;;;;;;;;3.40;99.90;;;;;;4981035;28;20233;-77
2022/01/28 01:24:08;;;;;;;;;;;3.60;99.90;;;;;;4980344;28;20434;-78
2022/01/28 01:26:39;;;;;;;;;;;3.70;99.90;;;;;;4984401;28;19926;-78
2022/01/28 01:29:09;;;;;;;;;;;3.80;99.90;;;;;;4981454;28;20032;-77
2022/01/28 01:31:39;;;;;;;;;;;3.60;99.90;;;;;;4977232;28;20300;-77
2022/01/28 01:34:19;;;;;;;;;;;3.60;99.90;;;;;;4984510;28;19930;-77
2022/01/28 01:36:45;;;;;;;;;;;3.40;99.90;;;;;;4982727;28;19933;-76
2022/01/28 01:39:21;;;;;;;;;;;3.40;99.90;;;;;;4976181;28;20122;-76
2022/01/28 01:41:55;;;;;;;;;;;3.40;99.90;;;;;;4980832;28;19994;-76
2022/01/28 01:45:10;;;;;;;;;;;3.30;99.90;;;;;;4984689;28;19926;-76
2022/01/28 01:52:57;;;;;;;;;;;2.70;99.90;;;;;;4977368;28;19926;-76
2022/01/28 01:55:24;;;;;;;;;;;2.60;99.90;;;;;;4973224;28;19930;-76
2022/01/28 01:57:51;;;;;;;;;;;2.40;99.90;;;;;;4977837;28;20273;-76
2022/01/28 02:00:18;;;;;;;;;;;2.30;99.90;;;;;;4981097;28;19934;-77
2022/01/28 02:02:44;;;;;;;;;;;2.20;99.90;;;;;;4979314;28;20461;-77
2022/01/28 02:05:11;;;;;;;;;;;2.10;99.90;;;;;;4981260;28;19992;-76
2022/01/28 02:07:39;;;;;;;;;;;2.00;99.90;;;;;;4984213;28;19928;-76
2022/01/28 02:10:06;;;;;;;;;;;1.90;99.90;;;;;;4983656;28;19926;-76
2022/01/28 02:12:44;;;;;;;;;;;1.90;99.90;;;;;;4979827;28;20472;-76
2022/01/28 02:15:11;;;;;;;;;;;2.00;99.90;;;;;;4982578;28;20607;-78
2022/01/28 02:17:38;;;;;;;;;;;2.10;99.90;;;;;;4978144;28;19944;-78
2022/01/28 02:20:08;;;;;;;;;;;2.10;99.90;;;;;;4983377;28;19943;-78
2022/01/28 02:22:35;;;;;;;;;;;2.10;99.90;;;;;;4978624;28;20095;-78
2022/01/28 02:25:01;;;;;;;;;;;2.00;99.90;;;;;;4981511;28;20094;-78
2022/01/28 02:27:31;;;;;;;;;;;2.00;99.90;;;;;;4984579;28;19922;-77
2022/01/28 02:30:00;;;;;;;;;;;2.00;99.90;;;;;;4983261;28;19928;-77
2022/01/28 02:32:27;;;;;;;;;;;2.10;99.90;;;;;;4976729;28;19933;-78
2022/01/28 02:34:54;;;;;;;;;;;2.20;99.90;;;;;;4982658;28;19929;-78
2022/01/28 02:37:24;;;;;;;;;;;2.30;99.90;;;;;;4980286;28;19952;-77
2022/01/28 02:39:52;;;;;;;;;;;2.30;99.90;;;;;;4976516;28;19930;-78
2022/01/28 02:42:28;;;;;;;;;;;2.20;99.90;;;;;;4984988;28;19928;-78
2022/01/28 02:44:56;;;;;;;;;;;2.20;99.90;;;;;;4976826;28;20277;-78
2022/01/28 02:47:33;;;;;;;;;;;2.20;99.90;;;;;;4980149;28;20432;-77
2022/01/28 02:50:01;;;;;;;;;;;2.10;99.90;;;;;;4985746;28;19922;-78
2022/01/28 02:52:38;;;;;;;;;;;2.10;99.90;;;;;;4981163;28;19921;-77
2022/01/28 02:55:09;;;;;;;;;;;2.00;99.90;;;;;;4975706;28;19930;-77
2022/01/28 02:57:40;;;;;;;;;;;1.90;99.90;;;;;;4983033;28;19979;-77
2022/01/28 03:00:07;;;;;;;;;;;1.90;99.90;;;;;;4983266;28;19922;-77
2022/01/28 03:02:36;;;;;;;;;;;1.80;99.90;;;;;;4982638;28;20028;-77
2022/01/28 03:07:42;;;;;;;;;;;1.70;99.90;;;;;;4980124;28;20478;-77
2022/01/28 03:12:58;;;;;;;;;;;1.60;99.90;;;;;;4975181;28;19953;-77
2022/01/28 03:15:23;;;;;;;;;;;1.60;99.90;;;;;;4978418;28;19933;-77
2022/01/28 03:23:07;;;;;;;;;;;1.60;99.90;;;;;;4983729;28;19925;-77
2022/01/28 03:25:42;;;;;;;;;;;1.60;99.90;;;;;;4978121;28;20156;-78
2022/01/28 03:28:13;;;;;;;;;;;1.80;99.90;;;;;;4981749;28;20292;-77
2022/01/28 03:30:40;;;;;;;;;;;2.00;99.90;;;;;;4984468;28;19933;-77
2022/01/28 03:33:07;;;;;;;;;;;2.00;99.90;;;;;;4987605;28;20175;-77
2022/01/28 03:35:35;;;;;;;;;;;2.10;99.90;;;;;;4994050;28;20016;-77
2022/01/28 03:38:06;;;;;;;;;;;2.20;99.90;;;;;;4971841;28;19922;-77
2022/01/28 03:40:35;;;;;;;;;;;2.20;99.90;;;;;;4981797;28;22277;-77
2022/01/28 03:43:03;;;;;;;;;;;2.20;99.90;;;;;;4985567;28;19961;-77
2022/01/28 03:45:29;;;;;;;;;;;2.20;99.90;;;;;;4984021;28;20332;-78
2022/01/28 03:47:56;;;;;;;;;;;2.10;99.90;;;;;;4977577;28;19922;-78
2022/01/28 03:50:25;;;;;;;;;;;2.10;99.90;;;;;;4977908;28;19925;-77
2022/01/28 03:52:52;;;;;;;;;;;2.00;99.90;;;;;;4982221;28;20016;-77
2022/01/28 03:55:19;;;;;;;;;;;2.00;99.90;;;;;;4983001;28;19972;-77
2022/01/28 03:57:46;;;;;;;;;;;2.00;99.90;;;;;;4984181;28;20109;-77
2022/01/28 04:00:15;;;;;;;;;;;2.00;99.90;;;;;;4982096;28;19922;-77
2022/01/28 04:02:44;;;;;;;;;;;2.00;99.90;;;;;;4974212;28;19926;-78
2022/01/28 04:11:25;;;;;;;;;;;1.90;99.90;;;;;;4982268;28;19955;-77
2022/01/28 04:13:31;;;;;;;;;;;2.00;99.90;;;;;;4979061;28;19922;-77
2022/01/28 04:18:43;;;;;;;;;;;1.90;99.90;;;;;;4984110;28;19922;-77
2022/01/28 04:21:10;;;;;;;;;;;1.70;99.90;;;;;;4984201;28;19922;-77
2022/01/28 04:23:37;;;;;;;;;;;1.60;99.90;;;;;;4978712;28;19944;-77
2022/01/28 04:26:03;;;;;;;;;;;1.50;99.90;;;;;;4983245;28;19929;-77
2022/01/28 04:28:30;;;;;;;;;;;1.50;99.90;;;;;;4981528;28;19944;-77
2022/01/28 04:30:57;;;;;;;;;;;1.50;99.90;;;;;;4979607;28;19944;-77
2022/01/28 04:33:23;;;;;;;;;;;1.60;99.90;;;;;;4978958;28;19929;-77
2022/01/28 04:35:53;;;;;;;;;;;1.60;99.90;;;;;;4980232;28;20032;-77
2022/01/28 04:38:37;;;;;;;;;;;1.60;99.90;;;;;;4981710;28;19926;-77
2022/01/28 04:41:24;;;;;;;;;;;1.50;99.90;;;;;;4986395;28;19927;-77
2022/01/28 04:43:59;;;;;;;;;;;1.40;99.90;;;;;;4987662;28;19928;-77
2022/01/28 04:46:38;;;;;;;;;;;1.30;99.90;;;;;;5041213;28;19946;-77
2022/01/28 04:49:12;;;;;;;;;;;1.20;99.90;;;;;;5013736;28;19963;-77
2022/01/28 04:57:04;;;;;;;;;;;1.00;99.90;;;;;;4978005;28;19921;-77
2022/01/28 05:26:00;;;;;;;;;;;1.20;99.90;;;;;;4977695;28;20385;-77
2022/01/28 05:28:27;;;;;;;;;;;1.20;99.90;;;;;;4981672;28;19978;-77
2022/01/28 05:30:54;;;;;;;;;;;1.40;99.90;;;;;;4975743;28;19922;-77
2022/01/28 05:33:20;;;;;;;;;;;1.60;99.90;;;;;;4979004;28;19922;-77
2022/01/28 05:35:47;;;;;;;;;;;1.80;99.90;;;;;;4978622;28;19928;-77
2022/01/28 05:38:14;;;;;;;;;;;1.90;99.90;;;;;;4983767;28;19937;-77
2022/01/28 05:40:40;;;;;;;;;;;2.00;99.90;;;;;;4980776;28;19928;-77
2022/01/28 05:43:10;;;;;;;;;;;2.10;99.90;;;;;;4975499;28;19960;-77
2022/01/28 05:45:43;;;;;;;;;;;2.20;99.90;;;;;;4977217;28;19975;-77
2022/01/28 05:48:11;;;;;;;;;;;2.30;99.90;;;;;;4984657;28;20443;-77
2022/01/28 05:50:38;;;;;;;;;;;2.20;99.90;;;;;;4976316;28;19932;-77
2022/01/28 05:53:04;;;;;;;;;;;2.20;99.90;;;;;;4971213;28;19922;-77
2022/01/28 05:55:31;;;;;;;;;;;2.20;99.90;;;;;;4994175;28;20233;-77
2022/01/28 05:57:58;;;;;;;;;;;2.30;99.90;;;;;;4975782;28;20372;-77
2022/01/28 06:00:24;;;;;;;;;;;2.20;99.90;;;;;;4977418;28;19937;-77
2022/01/28 06:02:54;;;;;;;;;;;2.20;99.90;;;;;;4978038;28;19932;-77
2022/01/28 06:05:21;;;;;;;;;;;2.10;99.90;;;;;;4979069;28;19928;-77
2022/01/28 06:07:47;;;;;;;;;;;2.10;99.90;;;;;;4976154;28;20076;-77
2022/01/28 06:10:17;;;;;;;;;;;2.20;99.90;;;;;;4981743;28;19952;-77
2022/01/28 06:12:45;;;;;;;;;;;2.30;99.90;;;;;;4978566;28;19926;-77
2022/01/28 06:15:12;;;;;;;;;;;2.30;99.90;;;;;;4978134;28;20399;-77
2022/01/28 06:17:42;;;;;;;;;;;2.40;99.90;;;;;;4981661;28;19928;-76
2022/01/28 06:20:10;;;;;;;;;;;2.40;99.90;;;;;;4979431;28;19922;-76
2022/01/28 06:22:40;;;;;;;;;;;2.50;99.90;;;;;;4973423;28;20008;-77
2022/01/28 06:25:07;;;;;;;;;;;2.50;99.90;;;;;;4979032;28;19922;-77
2022/01/28 06:27:34;;;;;;;;;;;2.50;99.90;;;;;;4975122;28;19922;-76
2022/01/28 06:30:04;;;;;;;;;;;2.40;99.90;;;;;;4980986;28;20315;-76
2022/01/28 06:32:31;;;;;;;;;;;2.30;99.90;;;;;;4976741;28;19930;-76
2022/01/28 06:35:00;;;;;;;;;;;2.20;99.90;;;;;;4980926;28;20044;-76
2022/01/28 06:37:27;;;;;;;;;;;2.20;99.90;;;;;;4974937;28;19926;-77
2022/01/28 06:39:54;;;;;;;;;;;2.00;99.90;;;;;;4983399;28;20380;-76
2022/01/28 06:42:21;;;;;;;;;;;2.00;99.90;;;;;;4980750;28;20004;-76
2022/01/28 06:44:47;;;;;;;;;;;2.00;99.90;;;;;;4973468;28;20101;-76
2022/01/28 06:47:14;;;;;;;;;;;1.90;99.90;;;;;;4976535;28;20049;-77
2022/01/28 06:49:40;;;;;;;;;;;1.80;99.90;;;;;;4976926;28;19929;-76
2022/01/28 06:52:07;;;;;;;;;;;1.80;99.90;;;;;;4980539;28;19922;-76
2022/01/28 06:54:39;;;;;;;;;;;1.80;99.90;;;;;;4996096;28;20338;-76
2022/01/28 06:57:06;;;;;;;;;;;1.70;99.90;;;;;;4975501;28;19929;-76
2022/01/28 06:59:41;;;;;;;;;;;1.70;99.90;;;;;;4975400;28;19930;-76
2022/01/28 07:02:08;;;;;;;;;;;1.60;99.90;;;;;;4986481;28;19925;-76
2022/01/28 07:04:36;;;;;;;;;;;1.50;99.90;;;;;;4984991;28;20175;-76
2022/01/28 07:07:06;;;;;;;;;;;1.40;99.90;;;;;;4977745;28;19932;-76
2022/01/28 07:09:34;;;;;;;;;;;1.40;99.90;;;;;;4986700;28;19929;-76
2022/01/28 07:12:02;;;;;;;;;;;1.20;99.90;;;;;;4984831;28;19968;-76
2022/01/28 07:14:29;;;;;;;;;;;1.10;99.90;;;;;;4984592;28;19921;-76
2022/01/28 07:16:55;;;;;;;;;;;1.10;99.90;;;;;;4979746;28;19930;-76
2022/01/28 07:19:22;;;;;;;;;;;0.90;99.90;;;;;;4976378;28;19922;-76
2022/01/28 07:21:49;;;;;;;;;;;0.80;99.90;;;;;;4976301;28;19922;-76
2022/01/28 07:24:18;;;;;;;;;;;0.70;99.90;;;;;;4977361;28;20004;-76
2022/01/28 07:26:44;;;;;;;;;;;0.70;99.90;;;;;;4977609;28;19922;-75
2022/01/28 07:29:14;;;;;;;;;;;0.60;99.90;;;;;;4979184;28;19925;-76
2022/01/28 07:31:41;;;;;;;;;;;0.60;99.90;;;;;;4982034;28;19929;-76
2022/01/28 07:34:08;;;;;;;;;;;0.70;99.90;;;;;;4980291;28;19929;-76
2022/01/28 07:36:39;;;;;;;;;;;0.70;99.90;;;;;;4981836;28;20391;-76
2022/01/28 07:39:07;;;;;;;;;;;0.70;99.90;;;;;;4981781;28;20405;-76
2022/01/28 07:41:34;;;;;;;;;;;0.70;99.90;;;;;;4976199;28;19933;-76
2022/01/28 07:44:07;;;;;;;;;;;0.70;99.90;;;;;;4983312;28;19921;-76
2022/01/28 07:46:33;;;;;;;;;;;0.80;99.90;;;;;;4980935;28;19945;-78
2022/01/28 07:49:00;;;;;;;;;;;0.90;99.90;;;;;;4976830;28;20380;-79
2022/01/28 07:51:27;;;;;;;;;;;1.20;99.90;;;;;;4985890;28;19930;-78
2022/01/28 07:53:54;;;;;;;;;;;1.60;99.90;;;;;;4976492;28;19932;-78
2022/01/28 07:56:22;;;;;;;;;;;2.10;99.90;;;;;;4986986;28;19932;-77
2022/01/28 07:58:52;;;;;;;;;;;2.60;99.90;;;;;;4974885;28;19965;-76
2022/01/28 08:01:18;;;;;;;;;;;3.00;99.90;;;;;;4979571;28;20273;-76
2022/01/28 08:03:49;;;;;;;;;;;3.20;99.90;;;;;;4985273;28;20401;-76
2022/01/28 08:06:15;;;;;;;;;;;3.40;99.90;;;;;;4986973;28;20610;-76
2022/01/28 08:08:42;;;;;;;;;;;3.50;99.90;;;;;;4984158;28;19932;-76
2022/01/28 08:11:08;;;;;;;;;;;3.50;99.90;;;;;;4978065;28;19936;-78
2022/01/28 08:13:35;;;;;;;;;;;3.50;99.90;;;;;;4978677;28;20009;-76
2022/01/28 08:16:02;;;;;;;;;;;3.60;99.90;;;;;;4982419;28;20372;-76
2022/01/28 08:18:28;;;;;;;;;;;3.60;99.90;;;;;;4971141;28;19949;-77
2022/01/28 08:20:55;;;;;;;;;;;3.60;99.90;;;;;;4976899;28;19930;-76
2022/01/28 08:23:29;;;;;;;;;;;3.70;99.90;;;;;;4976366;28;19960;-76
2022/01/28 08:25:56;;;;;;;;;;;3.70;99.90;;;;;;4978048;28;19926;-76
2022/01/28 08:28:22;;;;;;;;;;;3.60;99.90;;;;;;4979737;28;19928;-76
2022/01/28 08:30:51;;;;;;;;;;;3.60;99.90;;;;;;4982121;28;19929;-78
2022/01/28 08:33:18;;;;;;;;;;;3.70;99.90;;;;;;4977884;28;19922;-78
2022/01/28 08:35:51;;;;;;;;;;;3.80;99.90;;;;;;4977355;28;19922;-78
2022/01/28 08:38:24;;;;;;;;;;;3.90;99.90;;;;;;4971305;28;19929;-77
2022/01/28 08:40:56;;;;;;;;;;;3.80;99.90;;;;;;4992072;28;20387;-78
2022/01/28 08:43:26;;;;;;;;;;;3.90;99.90;;;;;;4983185;28;19933;-78
2022/01/28 08:45:53;;;;;;;;;;;4.00;99.90;;;;;;5001006;28;19937;-78
2022/01/28 08:48:20;;;;;;;;;;;4.10;99.90;;;;;;4972733;28;19930;-78
2022/01/28 08:50:47;;;;;;;;;;;4.20;99.90;;;;;;4981123;28;19976;-76
2022/01/28 08:53:14;;;;;;;;;;;4.20;99.90;;;;;;4982004;28;19929;-76
2022/01/28 08:55:40;;;;;;;;;;;4.40;99.90;;;;;;4983800;28;19945;-77
2022/01/28 08:58:08;;;;;;;;;;;4.50;99.90;;;;;;4971803;28;19962;-76
2022/01/28 09:00:35;;;;;;;;;;;4.60;99.90;;;;;;4976342;28;19922;-76
2022/01/28 09:03:02;;;;;;;;;;;4.60;99.90;;;;;;4976349;28;19925;-76
2022/01/28 09:05:29;;;;;;;;;;;4.70;99.90;;;;;;4976803;28;19937;-76
2022/01/28 09:07:56;;;;;;;;;;;4.90;99.90;;;;;;4979059;28;19926;-76
2022/01/28 09:10:30;;;;;;;;;;;5.00;99.90;;;;;;4977834;28;19926;-76
2022/01/28 09:15:36;;;;;;;;;;;5.10;99.90;;;;;;4977390;28;19922;-76
2022/01/28 09:18:03;;;;;;;;;;;5.30;99.90;;;;;;4975413;28;20008;-76
2022/01/28 09:20:33;;;;;;;;;;;5.30;99.90;;;;;;4976417;28;19921;-77
2022/01/28 09:23:00;;;;;;;;;;;5.50;99.90;;;;;;4974325;28;20168;-76
2022/01/28 09:25:27;;;;;;;;;;;6.10;99.90;;;;;;4972562;28;20465;-76
2022/01/28 09:27:54;;;;;;;;;;;7.00;99.90;;;;;;4977165;28;20032;-76
2022/01/28 09:30:20;;;;;;;;;;;7.90;99.90;;;;;;4980820;28;20379;-76
2022/01/28 09:32:47;;;;;;;;;;;8.10;99.90;;;;;;4978335;28;19922;-76
2022/01/28 09:35:15;;;;;;;;;;;8.10;99.90;;;;;;4995745;28;19925;-76
2022/01/28 09:37:43;;;;;;;;;;;7.90;99.90;;;;;;4999353;28;19936;-76
2022/01/28 09:40:10;;;;;;;;;;;7.40;99.90;;;;;;4998384;28;19937;-76
2022/01/28 09:42:41;;;;;;;;;;;7.00;99.90;;;;;;4974211;28;20311;-76
2022/01/28 09:45:09;;;;;;;;;;;6.70;99.90;;;;;;4978782;28;19929;-76
2022/01/28 09:47:36;;;;;;;;;;;6.60;99.90;;;;;;4979159;28;19926;-76
2022/01/28 09:50:04;;;;;;;;;;;6.70;99.90;;;;;;4974768;28;19933;-76
2022/01/28 09:52:31;;;;;;;;;;;6.80;99.90;;;;;;4970062;28;20337;-76
2022/01/28 09:54:58;;;;;;;;;;;6.90;99.90;;;;;;4981022;28;20327;-75
2022/01/28 09:57:25;;;;;;;;;;;6.90;99.90;;;;;;4976380;28;22076;-75
2022/01/28 09:59:54;;;;;;;;;;;6.90;99.90;;;;;;5001733;28;19923;-76
2022/01/28 10:02:41;;;;;;;;;;;7.00;99.90;;;;;;5019342;28;19926;-76
2022/01/28 10:05:31;;;;;;;;;;;7.10;99.90;;;;;;4985085;28;19981;-76
2022/01/28 10:07:58;;;;;;;;;;;7.20;99.90;;;;;;4999582;28;19984;-75
2022/01/28 10:10:25;;;;;;;;;;;7.10;99.90;;;;;;4978547;28;20414;-75
2022/01/28 10:20:05;;;;;;;;;;;6.90;99.90;;;;;;4965988;28;19971;-76
2022/01/28 10:22:34;;;;;;;;;;;6.80;99.90;;;;;;4976822;28;19934;-75
2022/01/28 10:25:26;;;;;;;;;;;6.60;99.90;;;;;;4974634;28;19922;-76
2022/01/28 10:27:56;;;;;;;;;;;6.30;99.90;;;;;;4981712;28;19922;-75
2022/01/28 10:30:28;;;;;;;;;;;6.00;99.90;;;;;;4991591;28;20052;-76
2022/01/28 10:33:14;;;;;;;;;;;5.80;99.90;;;;;;4980616;28;19994;-75
2022/01/28 10:35:54;;;;;;;;;;;5.90;99.90;;;;;;4971956;28;19930;-76
2022/01/28 10:38:27;;;;;;;;;;;6.10;99.90;;;;;;4974834;28;19926;-76
2022/01/28 10:41:12;;;;;;;;;;;6.20;99.90;;;;;;4971691;28;19926;-76
2022/01/28 10:44:04;;;;;;;;;;;6.10;99.90;;;;;;4983493;28;19926;-76
2022/01/28 10:46:34;;;;;;;;;;;5.70;99.90;;;;;;4981009;28;19930;-75
2022/01/28 10:49:02;;;;;;;;;;;5.40;99.90;;;;;;5012035;28;19925;-75
2022/01/28 10:51:55;;;;;;;;;;;5.20;99.90;;;;;;4979998;28;20032;-75
2022/01/28 10:54:22;;;;;;;;;;;5.70;99.90;;;;;;4980488;28;20273;-76
2022/01/28 10:56:49;;;;;;;;;;;7.40;99.90;;;;;;4973905;28;19953;-76
2022/01/28 10:59:18;;;;;;;;;;;8.70;99.90;;;;;;4982824;28;19926;-76
2022/01/28 11:01:46;;;;;;;;;;;10.30;99.90;;;;;;4985181;28;19930;-76
2022/01/28 11:04:14;;;;;;;;;;;11.20;99.90;;;;;;4979731;28;19928;-76
2022/01/28 11:06:41;;;;;;;;;;;11.40;99.90;;;;;;4972630;28;19928;-77
2022/01/28 11:09:08;;;;;;;;;;;11.40;99.90;;;;;;4973248;28;19926;-76
2022/01/28 11:11:35;;;;;;;;;;;11.50;99.90;;;;;;4975241;28;19926;-76
2022/01/28 11:14:02;;;;;;;;;;;11.60;99.90;;;;;;4986436;28;19967;-76
2022/01/28 11:16:29;;;;;;;;;;;10.90;99.90;;;;;;4984973;28;20407;-76
2022/01/28 11:18:56;;;;;;;;;;;10.50;99.90;;;;;;4978940;28;19971;-76
2022/01/28 11:21:30;;;;;;;;;;;10.20;99.90;;;;;;4974372;28;20007;-76
2022/01/28 11:24:15;;;;;;;;;;;10.00;99.90;;;;;;4974124;28;19925;-75
2022/01/28 11:26:50;;;;;;;;;;;9.40;99.90;;;;;;4976886;28;19930;-76
2022/01/28 11:29:18;;;;;;;;;;;9.20;99.90;;;;;;4979722;28;20287;-76
2022/01/28 11:31:58;;;;;;;;;;;9.00;99.90;;;;;;4974531;28;19964;-76
2022/01/28 11:34:26;;;;;;;;;;;8.80;99.90;;;;;;4979406;28;19936;-76
2022/01/28 11:36:54;;;;;;;;;;;8.60;99.90;;;;;;4976487;28;19922;-76
2022/01/28 11:39:23;;;;;;;;;;;8.40;99.90;;;;;;4978015;28;19922;-76
2022/01/28 11:42:01;;;;;;;;;;;8.20;99.90;;;;;;4990221;28;19927;-75
2022/01/28 11:44:48;;;;;;;;;;;8.10;99.90;;;;;;4979650;28;20402;-76
2022/01/28 11:47:20;;;;;;;;;;;8.00;99.90;;;;;;4978022;28;20000;-76
2022/01/28 11:50:25;;;;;;;;;;;7.90;99.90;;;;;;4978308;28;19928;-75
2022/01/28 11:52:53;;;;;;;;;;;7.80;99.90;;;;;;5064512;28;19928;-76
2022/01/28 11:55:26;;;;;;;;;;;7.60;99.90;;;;;;5059122;28;19927;-76
2022/01/28 11:58:14;;;;;;;;;;;7.60;99.90;;;;;;5061921;28;20445;-75
2022/01/28 12:00:45;;;;;;;;;;;7.60;99.90;;;;;;5065038;28;20110;-76
2022/01/28 12:03:23;;;;;;;;;;;7.70;99.90;;;;;;5053095;28;19920;-75
2022/01/28 12:05:56;;;;;;;;;;;7.90;99.90;;;;;;5061291;28;20394;-76
2022/01/28 12:08:26;;;;;;;;;;;9.20;99.90;;;;;;5045600;28;19920;-76
2022/01/28 12:10:54;;;;;;;;;;;11.30;99.90;;;;;;5062003;28;19927;-76
2022/01/28 12:13:29;;;;;;;;;;;11.50;99.90;;;;;;5064121;28;19925;-76
2022/01/28 12:16:09;;;;;;;;;;;10.90;99.90;;;;;;5060512;28;20012;-76
2022/01/28 12:18:42;;;;;;;;;;;10.90;99.90;;;;;;5060037;28;19920;-76
2022/01/28 12:21:11;;;;;;;;;;;11.60;99.90;;;;;;5063820;28;19979;-76
2022/01/28 12:23:40;;;;;;;;;;;11.90;99.90;;;;;;5028228;28;19922;-76
2022/01/28 12:26:07;;;;;;;;;;;12.60;99.90;;;;;;4986315;28;19922;-76
2022/01/28 12:28:33;;;;;;;;;;;12.90;99.90;;;;;;4989887;28;19925;-75
2022/01/28 12:31:04;;;;;;;;;;;12.40;99.90;;;;;;4979508;28;19995;-76
2022/01/28 12:33:32;;;;;;;;;;;11.50;99.90;;;;;;4985021;28;19930;-76
2022/01/28 12:36:05;;;;;;;;;;;10.30;99.90;;;;;;4982637;28;19940;-75
2022/01/28 12:38:33;;;;;;;;;;;9.60;99.90;;;;;;4987483;28;20475;-75
2022/01/28 12:41:08;;;;;;;;;;;8.90;99.90;;;;;;4992224;28;19933;-75
2022/01/28 12:43:39;;;;;;;;;;;8.50;99.90;;;;;;4980059;28;20432;-76
2022/01/28 12:46:07;;;;;;;;;;;8.60;99.90;;;;;;4974295;28;19930;-76
2022/01/28 12:48:34;;;;;;;;;;;8.50;99.90;;;;;;4986239;28;19979;-76
2022/01/28 12:51:02;;;;;;;;;;;8.20;99.90;;;;;;4984580;28;19929;-76
2022/01/28 12:53:34;;;;;;;;;;;8.10;99.90;;;;;;4976656;28;19922;-75
2022/01/28 12:56:04;;;;;;;;;;;8.00;99.90;;;;;;4974339;28;19932;-76
2022/01/28 12:58:31;;;;;;;;;;;8.30;99.90;;;;;;4986073;28;19951;-75
2022/01/28 13:01:05;;;;;;;;;;;8.80;99.90;;;;;;5028006;28;19942;-74
2022/01/28 13:03:37;;;;;;;;;;;9.40;99.90;;;;;;4972742;28;20340;-74
2022/01/28 13:09:00;;;;;;;;;;;9.90;99.90;;;;;;4983726;28;20580;-74
2022/01/28 13:11:29;;;;;;;;;;;9.50;99.90;;;;;;4981021;28;19921;-74
2022/01/28 13:13:56;;;;;;;;;;;9.30;99.90;;;;;;4978888;28;19967;-74
2022/01/28 13:16:33;;;;;;;;;;;9.40;99.90;;;;;;4987362;28;20417;-75
2022/01/28 13:19:00;;;;;;;;;;;10.00;99.90;;;;;;4977083;28;19930;-76
2022/01/28 13:21:28;;;;;;;;;;;10.70;99.90;;;;;;4976917;28;19928;-76
2022/01/28 13:24:03;;;;;;;;;;;10.30;99.90;;;;;;5005146;28;19926;-74
2022/01/28 13:26:34;;;;;;;;;;;9.80;99.90;;;;;;4982324;28;19948;-74
2022/01/28 13:29:08;;;;;;;;;;;9.30;99.90;;;;;;4975834;28;19925;-75
2022/01/28 13:31:35;;;;;;;;;;;9.10;99.90;;;;;;4987307;28;20013;-75
2022/01/28 13:34:05;;;;;;;;;;;9.20;99.90;;;;;;4983220;28;19928;-75
2022/01/28 13:36:44;;;;;;;;;;;9.10;99.90;;;;;;4983423;28;19929;-74
2022/01/28 13:39:16;;;;;;;;;;;8.90;99.90;;;;;;4988374;28;19930;-74
2022/01/28 13:41:42;;;;;;;;;;;8.80;99.90;;;;;;4997956;28;19924;-74
2022/01/28 13:44:23;;;;;;;;;;;8.70;99.90;;;;;;4974939;28;19922;-74
2022/01/28 13:46:57;;;;;;;;;;;8.50;99.90;;;;;;5002171;28;20303;-75
2022/01/28 13:49:27;;;;;;;;;;;8.30;99.90;;;;;;4986739;28;20315;-75
2022/01/28 13:52:10;;;;;;;;;;;8.20;99.90;;;;;;4978132;28;19948;-74
2022/01/28 13:54:39;;;;;;;;;;;8.10;99.90;;;;;;4972635;28;19926;-77
2022/01/28 13:57:07;;;;;;;;;;;8.00;99.90;;;;;;4975852;28;20317;-76
2022/01/28 13:59:34;;;;;;;;;;;7.70;99.90;;;;;;4987807;28;19928;-76
2022/01/28 14:02:02;;;;;;;;;;;7.50;99.90;;;;;;4980440;28;19925;-76
2022/01/28 14:04:35;;;;;;;;;;;7.30;99.90;;;;;;4983554;28;19968;-77
2022/01/28 14:07:11;;;;;;;;;;;7.20;99.90;;;;;;4978265;28;20244;-77
2022/01/28 14:09:52;;;;;;;;;;;7.30;99.90;;;;;;4979581;28;19926;-74
2022/01/28 14:12:28;;;;;;;;;;;7.40;99.90;;;;;;4978672;28;19971;-77
2022/01/28 14:15:00;;;;;;;;;;;7.50;99.90;;;;;;4975602;28;20036;-75
2022/01/28 14:17:26;;;;;;;;;;;7.60;99.90;;;;;;4983679;28;20416;-74
2022/01/28 14:19:53;;;;;;;;;;;7.70;99.90;;;;;;4994031;28;19925;-77
2022/01/28 14:22:20;;;;;;;;;;;7.60;99.90;;;;;;4981478;28;19926;-77
2022/01/28 14:24:52;;;;;;;;;;;7.50;99.90;;;;;;4977170;28;19929;-74
2022/01/28 14:30:02;;;;;;;;;;;7.70;99.90;;;;;;4975283;28;19948;-74
2022/01/28 14:32:29;;;;;;;;;;;7.90;99.90;;;;;;4969091;28;19928;-74
2022/01/28 14:34:56;;;;;;;;;;;8.10;99.90;;;;;;4980960;28;20486;-74
2022/01/28 14:37:24;;;;;;;;;;;8.20;99.90;;;;;;4983080;28;19933;-76
2022/01/28 14:39:51;;;;;;;;;;;8.20;99.90;;;;;;4986391;28;19926;-77
2022/01/28 14:42:17;;;;;;;;;;;8.10;99.90;;;;;;4978027;28;20178;-77
2022/01/28 14:44:45;;;;;;;;;;;8.00;99.90;;;;;;4977727;28;20028;-77
2022/01/28 14:47:16;;;;;;;;;;;7.90;99.90;;;;;;4969009;28;19967;-77
2022/01/28 14:49:42;;;;;;;;;;;7.80;99.90;;;;;;4968121;28;19945;-77
2022/01/28 14:52:13;;;;;;;;;;;7.70;99.90;;;;;;4975482;28;20057;-74
2022/01/28 14:54:40;;;;;;;;;;;7.70;99.90;;;;;;4988188;28;19929;-74
2022/01/28 14:57:09;;;;;;;;;;;7.60;99.90;;;;;;4974660;28;19933;-77
2022/01/28 14:59:37;;;;;;;;;;;7.50;99.90;;;;;;4975946;28;20351;-77
2022/01/28 15:02:05;;;;;;;;;;;7.30;99.90;;;;;;4972289;28;19936;-77
2022/01/28 15:04:32;;;;;;;;;;;7.20;99.90;;;;;;4974466;28;19930;-77
2022/01/28 15:06:59;;;;;;;;;;;7.00;99.90;;;;;;4984126;28;19921;-77
2022/01/28 15:09:26;;;;;;;;;;;6.90;99.90;;;;;;4974615;28;20008;-77
2022/01/28 15:11:53;;;;;;;;;;;6.80;99.90;;;;;;4999645;28;20346;-77
2022/01/28 15:14:21;;;;;;;;;;;6.60;99.90;;;;;;5005429;28;20011;-77
2022/01/28 15:16:49;;;;;;;;;;;6.60;99.90;;;;;;5013155;28;20358;-77
2022/01/28 15:19:17;;;;;;;;;;;6.50;99.90;;;;;;4976231;28;19922;-77
2022/01/28 15:21:53;;;;;;;;;;;6.50;99.90;;;;;;4978493;28;19921;-77
2022/01/28 15:24:21;;;;;;;;;;;6.60;99.90;;;;;;4972298;28;19921;-77
2022/01/28 15:26:48;;;;;;;;;;;6.70;99.90;;;;;;4975015;28;19925;-77
2022/01/28 15:29:35;;;;;;;;;;;6.90;99.90;;;;;;4975457;28;19926;-77
2022/01/28 15:37:35;;;;;;;;;;;7.00;99.90;;;;;;4979985;28;20360;-76
2022/01/28 15:40:02;;;;;;;;;;;6.90;99.90;;;;;;4978115;28;19926;-76
2022/01/28 15:42:29;;;;;;;;;;;6.90;99.90;;;;;;4981012;28;19930;-77
2022/01/28 15:44:56;;;;;;;;;;;6.80;99.90;;;;;;4985894;28;19922;-77
2022/01/28 15:47:22;;;;;;;;;;;6.80;99.90;;;;;;4996078;28;19929;-77
2022/01/28 15:49:49;;;;;;;;;;;6.70;99.90;;;;;;4983154;28;20388;-75
2022/01/28 15:52:16;;;;;;;;;;;6.50;99.90;;;;;;4977242;28;19922;-75
2022/01/28 15:54:44;;;;;;;;;;;6.30;99.90;;;;;;4995579;28;19925;-75
2022/01/28 15:57:10;;;;;;;;;;;6.10;99.90;;;;;;4999267;28;19929;-75
2022/01/28 15:59:43;;;;;;;;;;;5.90;99.90;;;;;;4990124;28;20297;-75
2022/01/28 16:02:09;;;;;;;;;;;5.70;99.90;;;;;;4973758;28;19936;-75
2022/01/28 16:04:40;;;;;;;;;;;5.50;99.90;;;;;;4973696;28;19925;-75
2022/01/28 16:07:07;;;;;;;;;;;5.30;99.90;;;;;;4986183;28;19982;-75
2022/01/28 16:09:34;;;;;;;;;;;5.10;99.90;;;;;;4974393;28;19936;-75
2022/01/28 16:12:03;;;;;;;;;;;4.90;99.90;;;;;;4984489;28;19951;-75
2022/01/28 16:14:33;;;;;;;;;;;4.80;99.90;;;;;;4978144;28;20204;-77
2022/01/28 16:19:41;;;;;;;;;;;4.70;99.90;;;;;;4968958;28;19922;-77
2022/01/28 16:22:10;;;;;;;;;;;4.70;99.90;;;;;;4975520;28;19968;-77
2022/01/28 16:24:36;;;;;;;;;;;4.60;99.90;;;;;;4978591;28;19922;-77
2022/01/28 16:27:03;;;;;;;;;;;4.50;99.90;;;;;;4972911;28;19944;-77
2022/01/28 16:29:30;;;;;;;;;;;4.40;99.90;;;;;;4971893;28;19929;-77
2022/01/28 16:31:58;;;;;;;;;;;4.30;99.90;;;;;;4974770;28;19930;-77